Taif, Saudi Arabia
Current Conditions -  °F | °C
As of 1:00 AM on Monday 26 Jan 2015 (Local Time) from OETF Reporting Station
Clear Clear  
Wind Chill: 54°   Ceiling: Unl
Heat Index: 54°   Visibility: 6mi
Dew Point:   Wind: 8mph
Humidity: 14%   Direction: 140°SE
Pressure: 30.18"   Gusts: NA
Location:  21.48°N, 40.54°E
Report Text: OETF 252200Z 14007KT CAVOK 12/M15 Q1022 NOSIG
Loading
Personal Weather Stations






























Interactive Weather Map New forecast layout! Learn more

10-Day Weather Forecast

Advertisements
Track Severe Weather on mobile